createdAt,value
2023-01-08T00:02:01.209Z,96649.97
2023-01-08T00:04:27.755Z,96672.22
2023-01-08T00:06:54.320Z,96654.25
2023-01-08T00:09:20.890Z,96622.81
2023-01-08T00:11:47.402Z,96619.63
2023-01-08T00:14:13.970Z,96610.06
2023-01-08T00:16:40.634Z,96610.66
2023-01-08T00:19:07.386Z,96620.88
2023-01-08T00:21:33.880Z,96617.56
2023-01-08T00:24:00.385Z,96638.06
2023-01-08T00:26:26.916Z,96623.22
2023-01-08T00:28:53.423Z,96612.88
2023-01-08T00:31:20.068Z,96606.88
2023-01-08T00:33:46.612Z,96600.31
2023-01-08T00:36:14.921Z,96597.66
2023-01-08T00:38:41.882Z,96588.56
2023-01-08T00:41:08.461Z,96589.94
2023-01-08T00:43:35.076Z,96580.06
2023-01-08T00:46:01.639Z,96579.22
2023-01-08T00:48:28.201Z,96586.72
2023-01-08T00:50:54.901Z,96596.03
2023-01-08T00:53:21.548Z,96586.47
2023-01-08T00:55:48.087Z,96590.50
2023-01-08T00:58:14.783Z,96570.03
2023-01-08T01:00:41.294Z,96586.72
2023-01-08T01:03:07.823Z,96576.47
2023-01-08T01:05:34.333Z,96573.47
2023-01-08T01:08:00.974Z,96586.97
2023-01-08T01:10:27.512Z,96572.66
2023-01-08T01:12:54.071Z,96588.78
2023-01-08T01:15:20.688Z,96556.16
2023-01-08T01:17:47.219Z,96572.69
2023-01-08T01:20:15.652Z,96584.78
2023-01-08T01:22:42.433Z,96579.03
2023-01-08T01:25:09.452Z,96575.47
2023-01-08T01:27:36.022Z,96591.00
2023-01-08T01:30:03.156Z,96601.38
2023-01-08T01:32:29.725Z,96602.50
2023-01-08T01:34:56.235Z,96580.31
2023-01-08T01:37:22.721Z,96591.00
2023-01-08T01:39:49.266Z,96608.03
2023-01-08T01:42:16.696Z,96577.53
2023-01-08T01:44:44.833Z,96578.44
2023-01-08T01:47:17.347Z,96525.94
2023-01-08T01:49:45.577Z,96563.81
2023-01-08T01:52:12.071Z,96568.31
2023-01-08T01:54:38.611Z,96577.53
2023-01-08T01:57:05.073Z,96559.94
2023-01-08T01:59:31.591Z,96552.56
2023-01-08T02:01:58.201Z,96565.09
2023-01-08T02:04:25.039Z,96551.75
2023-01-08T02:07:28.862Z,96557.19
2023-01-08T02:10:11.493Z,96553.38
2023-01-08T02:12:46.167Z,96550.16
2023-01-08T02:15:15.918Z,96543.50
2023-01-08T02:17:54.435Z,96555.44
2023-01-08T02:20:31.013Z,96522.19
2023-01-08T02:23:00.413Z,96547.63
2023-01-08T02:26:04.858Z,96533.00
2023-01-08T02:28:32.280Z,96519.53
2023-01-08T02:30:58.944Z,96543.25
2023-01-08T02:33:27.723Z,96546.81
2023-01-08T02:35:55.795Z,96523.34
2023-01-08T02:38:22.283Z,96557.50
2023-01-08T02:40:58.771Z,96539.34
2023-01-08T02:43:27.763Z,96538.88
2023-01-08T02:45:57.249Z,96531.63
2023-01-08T02:48:39.084Z,96502.75
2023-01-08T02:51:13.796Z,96528.53
2023-01-08T02:53:42.096Z,96525.66
2023-01-08T02:56:11.288Z,96507.47
2023-01-08T02:58:38.037Z,96510.78
2023-01-08T03:01:06.621Z,96502.31
2023-01-08T03:03:33.248Z,96504.50
2023-01-08T03:06:10.515Z,96527.25
2023-01-08T03:08:39.073Z,96519.78
2023-01-08T03:11:06.303Z,96517.81
2023-01-08T03:13:48.234Z,96490.13
2023-01-08T03:16:20.228Z,96500.91
2023-01-08T03:18:52.093Z,96488.03
2023-01-08T03:21:18.873Z,96500.44
2023-01-08T03:23:45.392Z,96507.13
2023-01-08T03:26:13.549Z,96481.94
2023-01-08T03:28:44.024Z,96482.88
2023-01-08T03:31:10.801Z,96494.13
2023-01-08T03:33:37.354Z,96490.78
2023-01-08T03:36:04.082Z,96502.06
2023-01-08T03:38:35.128Z,96493.06
2023-01-08T03:41:05.337Z,96470.50
2023-01-08T03:43:31.914Z,96486.06
2023-01-08T03:45:59.979Z,96479.97
2023-01-08T03:48:26.575Z,96476.31
2023-01-08T03:50:53.125Z,96472.38
2023-01-08T03:53:19.622Z,96467.13
2023-01-08T03:55:46.129Z,96487.81
2023-01-08T03:58:12.632Z,96501.84
2023-01-08T04:00:39.414Z,96455.34
2023-01-08T04:03:06.227Z,96461.66
2023-01-08T04:05:32.810Z,96466.84
2023-01-08T04:07:59.279Z,96444.31
2023-01-08T04:10:25.839Z,96466.53
2023-01-08T04:12:52.404Z,96454.47
2023-01-08T04:15:18.991Z,96454.00
2023-01-08T04:17:45.492Z,96450.09
2023-01-08T04:20:11.978Z,96452.97
2023-01-08T04:22:38.459Z,96451.00
2023-01-08T04:25:05.322Z,96436.28
2023-01-08T04:27:31.845Z,96430.91
2023-01-08T04:29:58.351Z,96383.88
2023-01-08T04:32:24.865Z,96468.47
2023-01-08T04:34:51.428Z,96445.25
2023-01-08T04:37:17.964Z,96470.19
2023-01-08T04:39:44.554Z,96416.28
2023-01-08T04:42:11.119Z,96411.09
2023-01-08T04:44:37.641Z,96424.56
2023-01-08T04:47:04.159Z,96458.25
2023-01-08T04:49:30.707Z,96420.19
2023-01-08T04:51:57.202Z,96415.59
2023-01-08T04:54:23.752Z,96411.91
2023-01-08T04:56:51.178Z,96419.16
2023-01-08T04:59:17.741Z,96376.97
2023-01-08T05:01:44.594Z,96416.16
2023-01-08T05:04:11.161Z,96409.84
2023-01-08T05:06:37.692Z,96384.19
2023-01-08T05:09:04.244Z,96413.50
2023-01-08T05:11:30.769Z,96381.44
2023-01-08T05:13:57.253Z,96406.84
2023-01-08T05:16:23.765Z,96386.97
2023-01-08T05:18:50.267Z,96385.69
2023-01-08T05:21:16.803Z,96383.84
2023-01-08T05:23:47.875Z,96380.16
2023-01-08T05:26:15.023Z,96354.19
2023-01-08T05:28:41.564Z,96373.06
2023-01-08T05:31:08.116Z,96382.00
2023-01-08T05:33:34.665Z,96403.63
2023-01-08T05:36:01.194Z,96358.78
2023-01-08T05:38:28.060Z,96389.03
2023-01-08T05:40:54.560Z,96396.63
2023-01-08T05:43:21.077Z,96371.59
2023-01-08T05:45:47.617Z,96374.44
2023-01-08T05:48:14.221Z,96372.03
2023-01-08T05:50:40.817Z,96379.75
2023-01-08T05:53:07.837Z,96369.25
2023-01-08T05:55:34.317Z,96373.63
2023-01-08T05:58:02.038Z,96370.41
2023-01-08T06:00:28.576Z,96350.41
2023-01-08T06:02:55.111Z,96360.75
2023-01-08T06:05:21.715Z,96352.16
2023-01-08T06:07:48.285Z,96367.19
2023-01-08T06:10:15.016Z,96375.13
2023-01-08T06:12:41.563Z,96353.19
2023-01-08T06:15:08.516Z,96376.25
2023-01-08T06:17:35.144Z,96383.97
2023-01-08T06:20:01.929Z,96365.25
2023-01-08T06:22:28.468Z,96375.34
2023-01-08T06:24:54.998Z,96366.50
2023-01-08T06:27:21.568Z,96385.25
2023-01-08T06:29:48.082Z,96374.22
2023-01-08T06:32:14.530Z,96379.75
2023-01-08T06:34:41.621Z,96366.84
2023-01-08T06:37:08.134Z,96355.25
2023-01-08T06:39:34.669Z,96370.41
2023-01-08T06:42:01.172Z,96350.44
2023-01-08T06:44:27.681Z,96364.31
2023-01-08T06:46:54.281Z,96362.16
2023-01-08T06:49:20.879Z,96375.94
2023-01-08T06:51:47.391Z,96391.34
2023-01-08T06:54:13.899Z,96357.56
2023-01-08T06:56:52.842Z,96364.66
2023-01-08T06:59:20.200Z,96371.22
2023-01-08T07:01:47.105Z,96365.59
2023-01-08T07:04:13.816Z,96366.72
2023-01-08T07:06:40.439Z,96355.94
2023-01-08T07:09:06.951Z,96376.25
2023-01-08T07:11:33.781Z,96376.41
2023-01-08T07:14:00.351Z,96345.94
2023-01-08T07:16:27.174Z,96354.22
2023-01-08T07:18:53.731Z,96353.38
2023-01-08T07:21:20.541Z,96360.28
2023-01-08T07:23:48.965Z,96372.47
2023-01-08T07:26:15.471Z,96381.53
2023-01-08T07:28:42.363Z,96390.06
2023-01-08T07:31:08.912Z,96366.25
2023-01-08T07:33:35.601Z,96377.06
2023-01-08T07:36:02.202Z,96383.63
2023-01-08T07:38:28.709Z,96410.16
2023-01-08T07:40:56.833Z,96398.56
2023-01-08T07:43:23.359Z,96391.06
2023-01-08T07:45:49.882Z,96383.03
2023-01-08T07:48:16.500Z,96403.69
2023-01-08T07:50:43.720Z,96392.72
2023-01-08T07:53:10.904Z,96387.78
2023-01-08T07:55:37.536Z,96369.59
2023-01-08T07:58:11.746Z,96397.19
2023-01-08T08:00:38.241Z,96373.63
2023-01-08T08:03:05.561Z,96394.34
2023-01-08T08:05:32.746Z,96380.44
2023-01-08T08:07:59.310Z,96384.28
2023-01-08T08:10:25.812Z,96372.31
2023-01-08T08:12:52.295Z,96388.13
2023-01-08T08:15:18.785Z,96381.41
2023-01-08T08:17:46.545Z,96384.41
2023-01-08T08:20:13.072Z,96383.34
2023-01-08T08:22:39.745Z,96380.44
2023-01-08T08:25:06.489Z,96373.88
2023-01-08T08:27:33.059Z,96375.91
2023-01-08T08:29:59.639Z,96364.50
2023-01-08T08:32:26.407Z,96374.63
2023-01-08T08:34:53.161Z,96393.09
2023-01-08T08:37:19.697Z,96390.34
2023-01-08T08:39:46.264Z,96356.66
2023-01-08T08:42:12.817Z,96366.69
2023-01-08T08:44:40.747Z,96364.78
2023-01-08T08:47:09.299Z,96360.81
2023-01-08T08:49:35.970Z,96386.94
2023-01-08T08:52:05.877Z,96373.66
2023-01-08T08:54:32.429Z,96377.25
2023-01-08T08:56:59.099Z,96387.47
2023-01-08T08:59:25.648Z,96358.34
2023-01-08T09:01:52.287Z,96395.34
2023-01-08T09:04:18.835Z,96377.97
2023-01-08T09:06:45.364Z,96370.97
2023-01-08T09:09:11.924Z,96387.81
2023-01-08T09:11:38.467Z,96361.03
2023-01-08T09:14:05.310Z,96377.97
2023-01-08T09:16:32.021Z,96401.03
2023-01-08T09:18:58.827Z,96367.81
2023-01-08T09:21:25.334Z,96384.88
2023-01-08T09:23:51.840Z,96390.78
2023-01-08T09:26:18.474Z,96390.22
2023-01-08T09:28:45.708Z,96398.31
2023-01-08T09:31:12.346Z,96405.00
2023-01-08T09:33:38.934Z,96402.41
2023-01-08T09:36:08.737Z,96396.56
2023-01-08T09:38:35.356Z,96412.53
2023-01-08T09:41:06.269Z,96401.25
2023-01-08T09:43:34.585Z,96383.75
2023-01-08T09:46:02.561Z,96390.47
2023-01-08T09:48:31.444Z,96361.38
2023-01-08T09:50:57.994Z,96386.47
2023-01-08T09:53:24.489Z,96402.47
2023-01-08T09:56:10.076Z,96382.69
2023-01-08T09:58:39.222Z,96385.66
2023-01-08T10:01:06.065Z,96373.91
2023-01-08T10:03:43.913Z,96399.22
2023-01-08T10:06:11.583Z,96387.16
2023-01-08T10:08:38.352Z,96373.16
2023-01-08T10:11:05.285Z,96372.63
2023-01-08T10:13:32.575Z,96359.66
2023-01-08T10:15:59.314Z,96373.81
2023-01-08T10:18:26.069Z,96379.72
2023-01-08T10:20:54.638Z,96351.06
2023-01-08T10:23:22.252Z,96321.81
2023-01-08T10:25:51.632Z,96357.66
2023-01-08T10:28:23.278Z,96346.00
2023-01-08T10:30:50.747Z,96335.03
2023-01-08T10:33:23.551Z,96321.56
2023-01-08T10:35:58.969Z,96309.41
2023-01-08T10:38:48.223Z,96302.97
2023-01-08T10:41:14.734Z,96301.03
2023-01-08T10:44:01.583Z,96299.56
2023-01-08T10:46:32.716Z,96310.09
2023-01-08T10:49:01.188Z,96309.44
2023-01-08T10:51:28.974Z,96299.91
2023-01-08T10:53:59.956Z,96317.06
2023-01-08T10:56:28.326Z,96300.53
2023-01-08T10:58:54.932Z,96309.06
2023-01-08T11:01:33.914Z,96299.50
2023-01-08T11:04:01.747Z,96309.84
2023-01-08T11:06:41.254Z,96302.03
2023-01-08T11:09:23.096Z,96283.91
2023-01-08T11:11:49.703Z,96298.84
2023-01-08T11:14:22.669Z,96296.66
2023-01-08T11:16:49.301Z,96278.72
2023-01-08T11:19:17.822Z,96270.66
2023-01-08T11:21:57.772Z,96246.16
2023-01-08T11:24:34.675Z,96263.38
2023-01-08T11:27:13.665Z,96281.75
2023-01-08T11:29:51.974Z,96265.78
2023-01-08T11:32:45.710Z,96281.22
2023-01-08T11:35:21.090Z,96281.00
2023-01-08T11:37:57.990Z,96310.69
2023-01-08T11:40:34.702Z,96286.38
2023-01-08T11:43:29.215Z,96281.88
2023-01-08T11:46:17.934Z,96289.34
2023-01-08T11:49:09.907Z,96294.41
2023-01-08T11:51:42.287Z,96284.78
2023-01-08T11:54:36.591Z,96284.25
2023-01-08T11:57:40.644Z,96265.28
2023-01-08T12:00:06.992Z,96267.16
2023-01-08T12:02:53.325Z,96245.34
2023-01-08T12:05:19.790Z,96251.47
2023-01-08T12:07:46.498Z,96216.28
2023-01-08T12:10:34.988Z,96242.94
2023-01-08T12:13:14.672Z,96248.78
2023-01-08T12:15:49.223Z,96219.97
2023-01-08T12:18:35.001Z,96215.16
2023-01-08T12:21:17.279Z,96245.31
2023-01-08T12:23:58.025Z,96221.03
2023-01-08T12:26:33.386Z,96234.38
2023-01-08T12:28:59.765Z,96230.03
2023-01-08T12:32:06.599Z,96259.13
2023-01-08T12:34:51.957Z,96244.16
2023-01-08T12:37:44.963Z,96238.25
2023-01-08T12:40:20.021Z,96267.31
2023-01-08T12:42:50.199Z,96250.22
2023-01-08T12:45:27.984Z,96237.94
2023-01-08T12:48:08.531Z,96247.03
2023-01-08T12:50:59.696Z,96218.19
2023-01-08T12:53:48.033Z,96222.97
2023-01-08T12:56:18.330Z,96206.72
2023-01-08T12:59:10.781Z,96219.50
2023-01-08T13:02:15.746Z,96213.88
2023-01-08T13:04:46.556Z,96219.72
2023-01-08T13:07:29.579Z,96206.69
2023-01-08T13:10:05.137Z,96224.56
2023-01-08T13:12:35.639Z,96204.53
2023-01-08T13:15:02.131Z,96189.88
2023-01-08T13:17:28.659Z,96207.53
2023-01-08T13:19:57.878Z,96197.66
2023-01-08T13:22:35.271Z,96191.25
2023-01-08T13:25:16.888Z,96208.06
2023-01-08T13:27:44.993Z,96173.34
2023-01-08T13:30:38.897Z,96192.59
2023-01-08T13:33:35.533Z,96164.84
2023-01-08T13:36:29.479Z,96152.34
2023-01-08T13:38:59.663Z,96169.69
2023-01-08T13:41:36.617Z,96172.41
2023-01-08T13:44:16.129Z,96149.44
2023-01-08T13:46:42.741Z,96156.13
2023-01-08T13:49:42.570Z,96153.78
2023-01-08T13:52:36.923Z,96169.75
2023-01-08T13:55:05.390Z,96153.00
2023-01-08T13:57:39.996Z,96139.13
2023-01-08T14:00:08.382Z,96155.16
2023-01-08T14:02:45.428Z,96140.22
2023-01-08T14:05:18.753Z,96139.69
2023-01-08T14:07:45.266Z,96141.56
2023-01-08T14:10:13.654Z,96146.91
2023-01-08T14:12:40.238Z,96149.56
2023-01-08T14:15:17.028Z,96149.56
2023-01-08T14:17:43.700Z,96161.84
2023-01-08T14:20:11.644Z,96127.72
2023-01-08T14:22:38.298Z,96136.53
2023-01-08T14:25:06.282Z,96155.47
2023-01-08T14:27:33.044Z,96174.41
2023-01-08T14:30:01.889Z,96149.06
2023-01-08T14:32:29.707Z,96153.88
2023-01-08T14:34:57.640Z,96150.97
2023-01-08T14:37:24.198Z,96154.16
2023-01-08T14:39:52.463Z,96154.69
2023-01-08T14:42:32.699Z,96145.38
2023-01-08T14:45:02.040Z,96134.19
2023-01-08T14:47:30.571Z,96162.72
2023-01-08T14:49:57.312Z,96123.50
2023-01-08T14:52:23.918Z,96152.84
2023-01-08T14:54:52.830Z,96196.56
2023-01-08T14:57:19.487Z,96182.72
2023-01-08T14:59:51.598Z,96172.84
2023-01-08T15:02:30.796Z,96170.44
2023-01-08T15:05:28.958Z,96189.13
2023-01-08T15:08:20.902Z,96181.41
2023-01-08T15:10:57.060Z,96185.91
2023-01-08T15:13:24.187Z,96189.91
2023-01-08T15:15:56.703Z,96152.34
2023-01-08T15:18:23.308Z,96160.06
2023-01-08T15:20:50.020Z,96172.31
2023-01-08T15:23:35.220Z,96181.94
2023-01-08T15:26:01.719Z,96185.94
2023-01-08T15:28:28.262Z,96145.13
2023-01-08T15:30:55.981Z,96191.22
2023-01-08T15:33:24.006Z,96157.66
2023-01-08T15:35:50.649Z,96140.88
2023-01-08T15:38:17.699Z,96162.47
2023-01-08T15:40:44.358Z,96170.97
2023-01-08T15:43:12.377Z,96165.66
2023-01-08T15:45:40.606Z,96141.94
2023-01-08T15:48:07.969Z,96150.75
2023-01-08T15:50:34.771Z,96135.28
2023-01-08T15:53:01.410Z,96139.56
2023-01-08T15:55:28.656Z,96134.75
2023-01-08T15:57:55.363Z,96141.69
2023-01-08T16:00:26.435Z,96134.50
2023-01-08T16:02:54.161Z,96147.81
2023-01-08T16:05:21.743Z,96124.88
2023-01-08T16:07:48.443Z,96125.44
2023-01-08T16:10:15.878Z,96113.97
2023-01-08T16:12:42.455Z,96120.91
2023-01-08T16:15:09.807Z,96122.50
2023-01-08T16:17:36.424Z,96083.88
2023-01-08T16:20:06.819Z,96093.22
2023-01-08T16:22:34.575Z,96096.94
2023-01-08T16:25:01.226Z,96114.00
2023-01-08T16:27:27.805Z,96108.16
2023-01-08T16:29:54.497Z,96082.31
2023-01-08T16:32:21.584Z,96083.63
2023-01-08T16:34:48.196Z,96071.66
2023-01-08T16:37:15.149Z,96097.47
2023-01-08T16:39:41.737Z,96083.38
2023-01-08T16:42:09.604Z,96078.03
2023-01-08T16:44:36.422Z,96052.72
2023-01-08T16:47:03.103Z,96057.81
2023-01-08T16:49:29.672Z,96050.59
2023-01-08T16:51:56.330Z,96066.06
2023-01-08T16:54:22.922Z,96054.34
2023-01-08T16:56:49.493Z,96036.78
2023-01-08T16:59:23.123Z,96015.22
2023-01-08T17:01:52.446Z,96042.91
2023-01-08T17:04:19.935Z,96045.81
2023-01-08T17:06:46.484Z,96029.31
2023-01-08T17:09:13.237Z,96011.22
2023-01-08T17:11:39.797Z,96002.69
2023-01-08T17:14:06.383Z,96003.75
2023-01-08T17:16:32.992Z,96003.22
2023-01-08T17:18:59.631Z,96002.41
2023-01-08T17:21:26.192Z,96000.78
2023-01-08T17:23:52.764Z,95967.81
2023-01-08T17:26:19.300Z,95943.88
2023-01-08T17:28:45.987Z,95968.06
2023-01-08T17:31:14.224Z,95969.38
2023-01-08T17:33:40.921Z,95919.91
2023-01-08T17:36:12.033Z,95961.34
2023-01-08T17:38:39.019Z,95958.16
2023-01-08T17:41:06.000Z,95937.97
2023-01-08T17:43:39.546Z,95944.03
2023-01-08T17:46:06.596Z,95927.81
2023-01-08T17:48:33.801Z,95937.91
2023-01-08T17:51:00.496Z,95925.97
2023-01-08T17:53:27.628Z,95938.16
2023-01-08T17:55:54.524Z,95927.78
2023-01-08T17:58:21.446Z,95904.69
2023-01-08T18:00:48.220Z,95926.16
2023-01-08T18:03:15.285Z,95928.03
2023-01-08T18:05:45.000Z,95929.88
2023-01-08T18:08:11.763Z,95930.69
2023-01-08T18:10:38.469Z,95922.44
2023-01-08T18:13:05.628Z,95923.84
2023-01-08T18:15:33.791Z,95919.06
2023-01-08T18:18:01.091Z,95902.34
2023-01-08T18:20:28.683Z,95914.31
2023-01-08T18:22:55.852Z,95909.03
2023-01-08T18:25:22.607Z,95895.44
2023-01-08T18:27:49.353Z,95905.28
2023-01-08T18:30:16.186Z,95914.34
2023-01-08T18:32:42.911Z,95922.84
2023-01-08T18:35:09.578Z,95909.03
2023-01-08T18:37:36.313Z,95910.34
2023-01-08T18:40:03.245Z,95901.84
2023-01-08T18:42:29.915Z,95900.50
2023-01-08T18:44:57.088Z,95904.78
2023-01-08T18:47:24.905Z,95893.06
2023-01-08T18:49:52.791Z,95891.47
2023-01-08T18:52:19.471Z,95876.59
2023-01-08T18:54:46.394Z,95861.16
2023-01-08T18:57:13.121Z,95857.97
2023-01-08T18:59:39.788Z,95859.28
2023-01-08T19:02:06.731Z,95828.72
2023-01-08T19:04:33.630Z,95841.47
2023-01-08T19:07:00.407Z,95843.59
2023-01-08T19:09:27.148Z,95829.78
2023-01-08T19:11:53.801Z,95805.59
2023-01-08T19:14:20.595Z,95816.50
2023-01-08T19:16:47.432Z,95841.75
2023-01-08T19:19:14.598Z,95830.59
2023-01-08T19:21:41.677Z,95824.19
2023-01-08T19:24:08.671Z,95830.84
2023-01-08T19:26:35.901Z,95817.28
2023-01-08T19:29:04.872Z,95813.56
2023-01-08T19:31:31.951Z,95815.44
2023-01-08T19:33:59.373Z,95818.09
2023-01-08T19:36:26.105Z,95809.06
2023-01-08T19:38:53.312Z,95812.00
2023-01-08T19:41:20.168Z,95818.09
2023-01-08T19:43:46.819Z,95808.00
2023-01-08T19:46:13.842Z,95799.22
2023-01-08T19:48:40.696Z,95797.09
2023-01-08T19:51:08.394Z,95798.16
2023-01-08T19:53:35.289Z,95804.00
2023-01-08T19:56:06.501Z,95794.16
2023-01-08T19:58:33.496Z,95795.25
2023-01-08T20:01:01.427Z,95802.41
2023-01-08T20:03:28.201Z,95796.56
2023-01-08T20:05:54.938Z,95796.31
2023-01-08T20:08:21.564Z,95775.31
2023-01-08T20:10:48.253Z,95772.41
2023-01-08T20:13:14.980Z,95762.81
2023-01-08T20:15:41.711Z,95737.31
2023-01-08T20:18:08.859Z,95739.97
2023-01-08T20:20:35.457Z,95733.59
2023-01-08T20:23:02.163Z,95737.03
2023-01-08T20:25:28.750Z,95725.09
2023-01-08T20:27:55.376Z,95721.63
2023-01-08T20:30:22.067Z,95734.91
2023-01-08T20:35:15.290Z,95729.88
2023-01-08T20:37:41.920Z,95667.72
2023-01-08T20:40:09.069Z,95705.97
2023-01-08T20:42:35.757Z,95728.28
2023-01-08T20:45:02.372Z,95667.19
2023-01-08T20:47:29.138Z,95691.09
2023-01-08T20:49:55.679Z,95677.56
2023-01-08T20:52:22.272Z,95655.53
2023-01-08T20:54:52.118Z,95696.94
2023-01-08T20:57:18.722Z,95693.47
2023-01-08T20:59:45.264Z,95693.75
2023-01-08T21:02:11.825Z,95684.97
2023-01-08T21:04:38.521Z,95668.78
2023-01-08T21:07:05.426Z,95681.00
2023-01-08T21:09:32.260Z,95662.69
2023-01-08T21:11:58.870Z,95679.38
2023-01-08T21:14:25.523Z,95671.44
2023-01-08T21:16:52.199Z,95665.84
2023-01-08T21:19:18.976Z,95660.25
2023-01-08T21:21:46.085Z,95644.34
2023-01-08T21:24:12.788Z,95633.72
2023-01-08T21:26:39.368Z,95651.53
2023-01-08T21:29:06.727Z,95636.38
2023-01-08T21:31:33.436Z,95640.59
2023-01-08T21:34:02.256Z,95618.00
2023-01-08T21:36:29.472Z,95643.81
2023-01-08T21:38:56.917Z,95611.66
2023-01-08T21:41:24.501Z,95620.97
2023-01-08T21:43:51.206Z,95624.91
2023-01-08T21:46:17.764Z,95635.28
2023-01-08T21:48:44.617Z,95629.94
2023-01-08T21:51:11.201Z,95640.06
2023-01-08T21:53:37.767Z,95610.06
2023-01-08T21:56:04.773Z,95627.31
2023-01-08T21:58:31.483Z,95616.94
2023-01-08T22:00:58.118Z,95607.09
2023-01-08T22:03:24.752Z,95606.03
2023-01-08T22:06:01.590Z,95631.81
2023-01-08T22:08:28.424Z,95616.38
2023-01-08T22:10:55.141Z,95604.94
2023-01-08T22:13:21.926Z,95601.47
2023-01-08T22:15:48.631Z,95611.56
2023-01-08T22:18:15.350Z,95589.50
2023-01-08T22:20:42.140Z,95560.25
2023-01-08T22:23:09.112Z,95569.03
2023-01-08T22:25:39.784Z,95566.63
2023-01-08T22:28:06.285Z,95557.84
2023-01-08T22:30:32.833Z,95562.91
2023-01-08T22:32:59.408Z,95578.03
2023-01-08T22:35:25.963Z,95539.28
2023-01-08T22:37:52.642Z,95533.69
2023-01-08T22:40:19.410Z,95537.91
2023-01-08T22:42:45.901Z,95529.94
2023-01-08T22:45:12.519Z,95537.91
2023-01-08T22:47:39.057Z,95514.56
2023-01-08T22:50:05.747Z,95541.66
2023-01-08T22:52:32.299Z,95556.00
2023-01-08T22:54:58.818Z,95534.72
2023-01-08T22:57:25.440Z,95515.38
2023-01-08T22:59:52.064Z,95516.16
2023-01-08T23:02:18.707Z,95504.19
2023-01-08T23:04:45.265Z,95524.63
2023-01-08T23:07:11.843Z,95483.44
2023-01-08T23:09:38.470Z,95508.38
2023-01-08T23:12:05.132Z,95508.69
2023-01-08T23:14:31.719Z,95494.84
2023-01-08T23:16:58.255Z,95517.69
2023-01-08T23:19:24.845Z,95495.88
2023-01-08T23:21:51.395Z,95497.56
2023-01-08T23:24:17.993Z,95504.19
2023-01-08T23:26:44.505Z,95489.78
2023-01-08T23:29:11.106Z,95482.09
2023-01-08T23:31:37.771Z,95508.69
2023-01-08T23:34:05.491Z,95472.00
2023-01-08T23:36:32.162Z,95469.84
2023-01-08T23:38:58.774Z,95476.47
2023-01-08T23:41:27.265Z,95475.41
2023-01-08T23:43:53.894Z,95465.59
2023-01-08T23:46:20.493Z,95449.88
2023-01-08T23:48:47.049Z,95441.38
2023-01-08T23:51:13.640Z,95443.50
2023-01-08T23:53:40.249Z,95441.69
2023-01-08T23:56:07.143Z,95447.72
2023-01-08T23:58:33.737Z,95462.34
